Time;durP1;ratioP1;P1;durP2;ratioP2;P2;SDS_P1;SDS_P2;PMS_P1;PMS_P2;Temp;Humidity;BMP_temperature;BMP_pressure;BME280_temperature;BME280_humidity;BME280_pressure;Samples;Min_cycle;Max_cycle;Signal;HPM_P1;HPM_P2
2022/06/05 00:01:27;;;;;;;12.80;7.32;;;20.00;99.90;;;;;;5051685;28;20028;-49
2022/06/05 00:04:03;;;;;;;8.63;6.65;;;19.90;99.90;;;;;;5051637;28;20167;-47
2022/06/05 00:06:42;;;;;;;6.35;5.82;;;19.90;99.90;;;;;;5051589;28;20032;-49
2022/06/05 00:09:33;;;;;;;6.97;6.38;;;19.80;99.90;;;;;;5050712;28;20056;-48
2022/06/05 00:12:09;;;;;;;6.82;6.22;;;19.80;99.90;;;;;;5049777;28;20082;-52
2022/06/05 00:14:37;;;;;;;7.72;7.10;;;19.80;99.90;;;;;;5051616;28;20112;-47
2022/06/05 00:17:05;;;;;;;9.57;6.25;;;19.70;99.90;;;;;;5051558;28;20033;-49
2022/06/05 00:19:31;;;;;;;8.98;6.70;;;19.70;99.90;;;;;;5051299;28;20021;-53
2022/06/05 00:21:56;;;;;;;7.18;6.47;;;19.60;99.90;;;;;;5051551;28;20496;-49
2022/06/05 00:24:22;;;;;;;7.20;6.50;;;19.50;99.90;;;;;;5051477;28;20029;-46
2022/06/05 00:26:52;;;;;;;7.22;6.68;;;19.60;99.90;;;;;;5051283;28;20037;-44
2022/06/05 00:29:35;;;;;;;7.28;6.68;;;19.60;99.90;;;;;;5051480;28;20021;-49
2022/06/05 00:32:12;;;;;;;8.43;7.63;;;19.50;99.90;;;;;;5073821;23;20040;-46
2022/06/05 00:34:38;;;;;;;8.48;7.68;;;19.50;99.90;;;;;;5051967;28;20037;-45
2022/06/05 00:37:23;;;;;;;8.70;7.18;;;19.50;99.90;;;;;;5052547;28;20388;-45
2022/06/05 00:40:09;;;;;;;7.60;6.97;;;19.40;99.90;;;;;;5052076;28;20021;-45
2022/06/05 00:42:35;;;;;;;8.60;7.63;;;19.50;99.90;;;;;;5051663;28;20029;-45
2022/06/05 00:45:07;;;;;;;8.15;7.35;;;19.50;99.90;;;;;;5051630;28;20033;-46
2022/06/05 00:47:33;;;;;;;7.70;7.00;;;19.40;99.90;;;;;;5051512;28;20111;-45
2022/06/05 00:50:11;;;;;;;7.82;7.13;;;19.40;99.90;;;;;;5049983;28;20025;-45
2022/06/05 00:52:41;;;;;;;7.57;6.97;;;19.40;99.90;;;;;;5051587;28;20035;-49
2022/06/05 00:55:08;;;;;;;8.07;7.38;;;19.40;99.90;;;;;;5050920;28;20091;-44
2022/06/05 00:57:36;;;;;;;8.48;7.78;;;19.40;99.90;;;;;;5051347;28;20021;-47
2022/06/05 01:00:16;;;;;;;7.68;7.03;;;19.40;99.90;;;;;;5051460;28;20025;-47
2022/06/05 01:02:44;;;;;;;8.52;7.68;;;19.40;99.90;;;;;;5051558;28;20056;-48
2022/06/05 01:05:12;;;;;;;8.32;7.63;;;19.50;99.90;;;;;;5051388;28;20032;-48
2022/06/05 01:07:38;;;;;;;8.02;7.32;;;19.60;99.90;;;;;;5050758;28;20056;-45
2022/06/05 01:10:06;;;;;;;8.43;7.80;;;19.60;99.90;;;;;;5051234;28;20060;-45
2022/06/05 01:13:14;;;;;;;8.15;7.53;;;19.60;99.90;;;;;;5050671;28;20025;-45
2022/06/05 01:15:56;;;;;;;8.50;7.80;;;19.50;99.90;;;;;;5048232;28;20083;-45
2022/06/05 01:18:48;;;;;;;8.48;7.78;;;19.50;99.90;;;;;;5051294;28;20025;-46
2022/06/05 01:21:32;;;;;;;8.95;8.10;;;19.40;99.90;;;;;;5053268;28;20017;-48
2022/06/05 01:24:20;;;;;;;8.52;7.80;;;19.30;99.90;;;;;;5054921;28;20082;-45
2022/06/05 01:27:00;;;;;;;8.40;7.80;;;19.40;99.90;;;;;;5055040;28;20028;-43
2022/06/05 01:29:39;;;;;;;9.07;8.27;;;19.30;99.90;;;;;;5054744;28;20032;-46
2022/06/05 01:32:12;;;;;;;8.82;8.13;;;19.30;99.90;;;;;;5054456;28;20040;-46
2022/06/05 01:34:51;;;;;;;9.60;8.32;;;19.20;99.90;;;;;;5054732;28;20078;-47
2022/06/05 01:37:33;;;;;;;8.35;7.75;;;19.10;99.90;;;;;;5054724;28;20017;-46
2022/06/05 01:40:22;;;;;;;10.93;8.15;;;19.10;99.90;;;;;;5054787;28;20024;-46
2022/06/05 01:43:07;;;;;;;8.57;7.88;;;19.00;99.90;;;;;;5054629;28;20021;-46
2022/06/05 01:45:48;;;;;;;9.20;8.43;;;18.90;99.90;;;;;;5054215;28;20139;-49
2022/06/05 01:48:18;;;;;;;9.85;8.25;;;18.80;99.90;;;;;;5054815;28;20039;-45
2022/06/05 01:50:47;;;;;;;9.15;8.45;;;18.70;99.90;;;;;;5054787;28;20017;-47
2022/06/05 01:53:29;;;;;;;9.73;8.82;;;18.80;99.90;;;;;;5054238;28;20029;-51
2022/06/05 01:56:04;;;;;;;9.43;7.97;;;18.80;99.90;;;;;;5054280;28;20029;-50
2022/06/05 01:58:42;;;;;;;8.77;8.10;;;18.70;99.90;;;;;;5054216;28;20056;-45
2022/06/05 02:01:13;;;;;;;8.75;8.10;;;18.70;99.90;;;;;;5054080;28;20043;-46
2022/06/05 02:03:51;;;;;;;9.23;8.32;;;18.70;99.90;;;;;;5054180;28;20424;-49
2022/06/05 02:06:35;;;;;;;8.88;8.00;;;18.70;99.90;;;;;;5055374;28;20120;-46
2022/06/05 02:09:13;;;;;;;9.45;8.65;;;18.70;99.90;;;;;;5055056;28;20029;-46
2022/06/05 02:11:38;;;;;;;8.88;8.10;;;18.60;99.90;;;;;;5053532;28;20493;-48
2022/06/05 02:14:07;;;;;;;8.55;7.85;;;18.60;99.90;;;;;;5054154;28;20037;-44
2022/06/05 02:16:35;;;;;;;9.65;8.00;;;18.70;99.90;;;;;;5054042;28;20050;-47
2022/06/05 02:19:06;;;;;;;9.60;8.70;;;18.70;99.90;;;;;;5054465;28;20021;-46
2022/06/05 02:21:33;;;;;;;10.95;7.30;;;18.70;99.90;;;;;;5054714;28;20028;-49
2022/06/05 02:23:58;;;;;;;7.78;7.22;;;18.70;99.90;;;;;;5053830;28;20025;-47
2022/06/05 02:26:26;;;;;;;9.38;8.40;;;18.80;99.90;;;;;;5054821;28;20036;-46
2022/06/05 02:28:52;;;;;;;9.38;7.35;;;18.70;99.90;;;;;;5054533;28;20433;-46
2022/06/05 02:31:41;;;;;;;7.97;7.28;;;18.70;99.90;;;;;;5054444;28;20024;-48
2022/06/05 02:34:22;;;;;;;7.93;7.22;;;18.70;99.90;;;;;;5053186;28;20032;-49
2022/06/05 02:37:08;;;;;;;8.07;7.18;;;18.70;99.90;;;;;;5054069;28;20025;-47
2022/06/05 02:40:06;;;;;;;8.07;7.47;;;18.70;99.90;;;;;;5054256;28;20024;-45
2022/06/05 02:42:41;;;;;;;8.13;7.30;;;18.70;99.90;;;;;;5054229;28;20115;-47
2022/06/05 02:45:31;;;;;;;8.32;7.65;;;18.70;99.90;;;;;;5054123;28;20496;-46
2022/06/05 02:48:15;;;;;;;8.52;7.93;;;18.70;99.90;;;;;;5052852;28;20025;-47
2022/06/05 02:50:57;;;;;;;7.63;7.03;;;18.60;99.90;;;;;;5053104;28;20427;-44
2022/06/05 02:53:23;;;;;;;8.07;7.47;;;18.60;99.90;;;;;;5053174;28;20094;-45
2022/06/05 02:55:48;;;;;;;8.00;7.32;;;18.60;99.90;;;;;;5053489;28;20025;-47
2022/06/05 02:58:14;;;;;;;7.13;6.45;;;18.60;99.90;;;;;;5053563;28;20039;-48
2022/06/05 03:00:40;;;;;;;7.70;6.47;;;18.60;99.90;;;;;;5053724;28;20025;-48
2022/06/05 03:05:51;;;;;;;7.50;6.90;;;18.60;99.90;;;;;;5053389;28;20111;-46
2022/06/05 03:08:19;;;;;;;7.57;6.97;;;18.60;99.90;;;;;;5053650;28;20048;-50
2022/06/05 03:10:45;;;;;;;8.00;7.22;;;18.60;99.90;;;;;;5053149;28;20036;-47
2022/06/05 03:13:12;;;;;;;10.63;8.13;;;18.60;99.90;;;;;;5053703;28;20028;-49
2022/06/05 03:15:38;;;;;;;11.60;7.85;;;18.60;99.90;;;;;;5052793;28;20053;-47
2022/06/05 03:18:04;;;;;;;8.93;6.75;;;18.60;99.90;;;;;;5052988;28;20158;-46
2022/06/05 03:20:30;;;;;;;7.63;6.93;;;18.60;99.90;;;;;;5053276;28;20040;-47
2022/06/05 03:22:56;;;;;;;8.55;7.75;;;18.60;99.90;;;;;;5051577;28;20037;-45
2022/06/05 03:25:25;;;;;;;7.47;6.88;;;18.60;99.90;;;;;;5052955;28;20469;-47
2022/06/05 03:27:50;;;;;;;7.13;6.35;;;18.60;99.90;;;;;;5052431;28;20037;-47
2022/06/05 03:30:17;;;;;;;10.27;7.03;;;18.60;99.90;;;;;;5052709;28;20025;-46
2022/06/05 03:32:43;;;;;;;10.05;6.95;;;18.60;99.90;;;;;;5052756;28;20041;-45
2022/06/05 03:35:11;;;;;;;8.90;7.07;;;18.60;99.90;;;;;;5052601;28;20028;-49
2022/06/05 03:37:36;;;;;;;7.78;7.00;;;18.70;99.90;;;;;;5052675;28;20036;-47
2022/06/05 03:40:07;;;;;;;7.93;7.00;;;18.70;99.90;;;;;;5052740;28;20096;-44
2022/06/05 03:42:32;;;;;;;7.28;6.68;;;18.70;99.90;;;;;;5052770;28;20469;-47
2022/06/05 03:44:58;;;;;;;7.22;6.70;;;18.70;99.90;;;;;;5053772;28;20064;-45
2022/06/05 03:47:23;;;;;;;8.75;6.50;;;18.80;99.90;;;;;;5053536;28;20029;-46
2022/06/05 03:49:49;;;;;;;7.25;6.55;;;18.80;99.90;;;;;;5053305;28;20112;-46
2022/06/05 03:52:14;;;;;;;7.50;6.85;;;18.80;99.90;;;;;;5052684;28;20559;-47
2022/06/05 03:54:40;;;;;;;8.77;8.00;;;18.80;99.90;;;;;;5052866;28;20029;-46
2022/06/05 03:57:06;;;;;;;7.25;6.35;;;18.80;99.90;;;;;;5052985;28;20025;-45
2022/06/05 03:59:35;;;;;;;8.50;7.15;;;18.90;99.90;;;;;;5052655;28;20028;-44
2022/06/05 04:02:01;;;;;;;7.18;6.53;;;18.90;99.90;;;;;;5053124;28;20025;-45
2022/06/05 04:04:26;;;;;;;7.30;6.68;;;18.90;99.90;;;;;;5052591;28;20506;-46
2022/06/05 04:06:52;;;;;;;7.22;6.63;;;19.00;99.90;;;;;;5052675;28;20020;-44
2022/06/05 04:09:17;;;;;;;7.38;6.88;;;19.00;99.90;;;;;;5052023;28;20108;-47
2022/06/05 04:11:43;;;;;;;6.60;6.00;;;19.00;99.90;;;;;;5051392;28;20021;-47
2022/06/05 04:14:09;;;;;;;6.70;6.20;;;19.00;99.90;;;;;;5051920;28;20029;-46
2022/06/05 04:16:38;;;;;;;8.07;6.57;;;19.00;99.90;;;;;;5051981;28;20104;-49
2022/06/05 04:19:04;;;;;;;7.40;6.30;;;19.00;99.90;;;;;;5052495;28;20032;-46
2022/06/05 04:21:32;;;;;;;8.20;6.82;;;19.00;99.90;;;;;;5052690;28;20025;-45
2022/06/05 04:23:58;;;;;;;10.15;6.70;;;19.10;99.90;;;;;;5052842;28;20021;-46
2022/06/05 04:26:30;;;;;;;10.40;6.93;;;19.10;99.90;;;;;;5052670;28;20029;-48
2022/06/05 04:28:56;;;;;;;7.32;6.72;;;19.20;99.90;;;;;;5051958;28;20032;-45
2022/06/05 04:31:36;;;;;;;7.38;6.68;;;19.00;99.90;;;;;;5052176;28;20017;-46
2022/06/05 04:34:11;;;;;;;6.95;6.43;;;19.00;99.90;;;;;;5052664;28;20657;-45
2022/06/05 04:36:36;;;;;;;7.43;6.83;;;19.10;99.90;;;;;;5052095;28;20052;-50
2022/06/05 04:39:03;;;;;;;7.53;6.93;;;19.10;99.90;;;;;;5051337;28;20747;-48
2022/06/05 04:41:29;;;;;;;7.25;6.75;;;19.10;99.90;;;;;;5051307;28;20083;-49
2022/06/05 04:43:56;;;;;;;7.22;6.53;;;19.00;99.90;;;;;;5051282;28;20095;-46
2022/06/05 04:46:23;;;;;;;7.88;7.07;;;19.00;99.90;;;;;;5051315;28;20087;-45
2022/06/05 04:48:49;;;;;;;13.23;7.75;;;19.00;99.90;;;;;;5051312;28;20029;-47
2022/06/05 04:51:15;;;;;;;8.02;6.35;;;18.90;99.90;;;;;;5051394;28;20112;-47
2022/06/05 04:53:42;;;;;;;8.50;7.63;;;18.90;99.90;;;;;;5051473;28;20078;-46
2022/06/05 04:56:10;;;;;;;7.63;7.03;;;18.90;99.90;;;;;;5051422;28;20025;-48
2022/06/05 04:58:36;;;;;;;7.93;7.30;;;18.90;99.90;;;;;;5055549;28;20029;-49
2022/06/05 05:01:08;;;;;;;11.52;7.65;;;19.00;99.90;;;;;;5055200;28;20025;-46
2022/06/05 05:03:34;;;;;;;8.65;6.95;;;19.10;99.90;;;;;;5055390;28;20036;-48
2022/06/05 05:05:59;;;;;;;7.93;7.32;;;19.00;99.90;;;;;;5055171;28;20104;-48
2022/06/05 05:08:25;;;;;;;8.40;7.55;;;19.00;99.90;;;;;;5054838;28;20029;-47
2022/06/05 05:10:50;;;;;;;7.93;7.32;;;19.00;99.90;;;;;;5054480;28;20076;-46
2022/06/05 05:13:16;;;;;;;10.65;7.25;;;19.00;99.90;;;;;;5054850;28;20373;-45
2022/06/05 05:15:42;;;;;;;8.35;7.63;;;19.00;99.90;;;;;;5054945;28;20017;-45
2022/06/05 05:18:07;;;;;;;8.82;7.22;;;19.00;99.90;;;;;;5054791;28;20025;-45
2022/06/05 05:20:33;;;;;;;8.73;7.80;;;19.00;99.90;;;;;;5054899;28;20606;-46
2022/06/05 05:22:58;;;;;;;10.18;7.80;;;18.90;99.90;;;;;;5054682;28;20025;-48
2022/06/05 05:25:25;;;;;;;9.43;8.02;;;18.90;99.90;;;;;;5055392;28;20077;-48
2022/06/05 05:27:50;;;;;;;9.25;8.40;;;18.90;99.90;;;;;;5054491;28;20453;-49
2022/06/05 05:30:16;;;;;;;7.78;7.15;;;18.90;99.90;;;;;;5054938;28;20125;-46
2022/06/05 05:32:41;;;;;;;9.85;8.73;;;18.90;99.90;;;;;;5054478;28;20079;-47
2022/06/05 05:35:08;;;;;;;8.52;7.57;;;18.90;99.90;;;;;;5054632;28;20492;-51
2022/06/05 05:37:33;;;;;;;9.15;8.45;;;18.90;99.90;;;;;;5054243;28;20033;-46
2022/06/05 05:42:44;;;;;;;9.43;8.52;;;18.90;99.90;;;;;;5054412;28;20044;-48
2022/06/05 05:45:10;;;;;;;12.27;8.43;;;18.90;99.90;;;;;;5054646;28;20025;-46
2022/06/05 05:47:35;;;;;;;10.38;8.77;;;18.80;99.90;;;;;;5054193;28;20031;-53
2022/06/05 05:50:11;;;;;;;10.90;9.93;;;18.70;99.90;;;;;;5054400;28;20036;-49
2022/06/05 05:52:37;;;;;;;12.73;9.18;;;18.70;99.90;;;;;;5054407;28;20025;-47
2022/06/05 05:55:02;;;;;;;11.27;10.10;;;18.60;99.90;;;;;;5054426;28;20087;-47
2022/06/05 05:57:28;;;;;;;10.60;9.60;;;18.60;99.90;;;;;;5054057;28;20075;-49
2022/06/05 05:59:54;;;;;;;11.98;10.88;;;18.50;99.90;;;;;;5054288;28;20021;-46
2022/06/05 06:02:22;;;;;;;12.30;11.07;;;18.40;99.90;;;;;;5054041;28;20025;-48
2022/06/05 06:04:50;;;;;;;11.70;10.55;;;18.40;99.90;;;;;;5054103;28;20032;-47
2022/06/05 06:07:16;;;;;;;12.88;11.77;;;18.30;99.90;;;;;;5052724;28;20111;-46
2022/06/05 06:09:42;;;;;;;12.00;10.90;;;18.20;99.90;;;;;;5054239;28;20025;-48
2022/06/05 06:12:09;;;;;;;12.13;11.10;;;18.20;99.90;;;;;;5053535;28;20029;-47
2022/06/05 06:14:34;;;;;;;12.88;11.02;;;18.20;99.90;;;;;;5053900;28;20032;-46
2022/06/05 06:17:00;;;;;;;12.02;10.82;;;18.20;99.90;;;;;;5053767;28;20361;-46
2022/06/05 06:19:25;;;;;;;17.35;11.02;;;18.20;99.90;;;;;;5054208;28;20401;-46
2022/06/05 06:21:51;;;;;;;15.05;11.35;;;18.20;99.90;;;;;;5054016;28;20110;-47
2022/06/05 06:24:17;;;;;;;12.35;11.35;;;18.20;99.90;;;;;;5053944;28;20082;-44
2022/06/05 06:26:43;;;;;;;11.90;10.90;;;18.20;99.90;;;;;;5054323;28;20032;-48
2022/06/05 06:29:09;;;;;;;12.30;11.23;;;18.30;99.90;;;;;;5053304;28;20033;-46
2022/06/05 06:31:38;;;;;;;11.80;10.80;;;18.40;99.90;;;;;;5053856;28;20032;-47
2022/06/05 06:34:04;;;;;;;13.30;11.55;;;18.40;99.90;;;;;;5076108;23;20488;-44
2022/06/05 06:36:30;;;;;;;12.68;11.55;;;18.50;99.90;;;;;;5053223;28;20025;-44
2022/06/05 06:38:56;;;;;;;13.07;11.07;;;18.40;99.90;;;;;;5052720;28;20029;-44
2022/06/05 06:41:21;;;;;;;13.35;10.93;;;18.50;99.90;;;;;;5053178;28;20036;-44
2022/06/05 06:43:48;;;;;;;12.23;11.10;;;18.60;99.90;;;;;;5051695;28;20037;-44
2022/06/05 06:46:16;;;;;;;10.85;9.50;;;18.60;99.90;;;;;;5053213;28;20449;-43
2022/06/05 06:48:42;;;;;;;11.18;10.07;;;18.70;99.90;;;;;;5052648;28;20099;-44
2022/06/05 06:51:08;;;;;;;10.60;9.73;;;18.70;99.90;;;;;;5053570;28;20145;-45
2022/06/05 06:53:36;;;;;;;10.55;9.30;;;18.70;99.90;;;;;;5051586;28;20080;-43
2022/06/05 06:56:16;;;;;;;13.30;9.60;;;18.80;99.90;;;;;;5052850;28;20025;-45
2022/06/05 06:58:42;;;;;;;10.13;8.85;;;18.80;99.90;;;;;;5052509;28;20022;-44
2022/06/05 07:01:08;;;;;;;9.30;8.50;;;18.90;99.90;;;;;;5051668;28;20366;-47
2022/06/05 07:03:34;;;;;;;9.43;8.65;;;19.00;99.90;;;;;;5052675;28;20017;-45
2022/06/05 07:06:06;;;;;;;9.07;8.25;;;19.20;99.90;;;;;;5052605;28;20021;-42
2022/06/05 07:08:32;;;;;;;8.30;7.70;;;19.30;99.90;;;;;;5052099;28;20037;-44
2022/06/05 07:10:58;;;;;;;8.32;7.55;;;19.40;99.90;;;;;;5051063;28;20079;-45
2022/06/05 07:13:24;;;;;;;11.38;8.70;;;19.50;99.90;;;;;;5052307;28;20021;-46
2022/06/05 07:15:50;;;;;;;9.98;8.35;;;19.50;99.90;;;;;;5052899;28;20109;-48
2022/06/05 07:18:17;;;;;;;8.57;7.88;;;19.50;99.90;;;;;;5052384;28;20021;-45
2022/06/05 07:20:43;;;;;;;9.50;8.57;;;19.40;99.90;;;;;;5053369;28;20100;-44
2022/06/05 07:23:10;;;;;;;9.15;8.25;;;19.40;99.90;;;;;;5052375;28;20491;-44
2022/06/05 07:25:36;;;;;;;8.52;7.78;;;19.40;99.90;;;;;;5052334;28;20029;-44
2022/06/05 07:28:03;;;;;;;9.10;8.27;;;19.40;99.90;;;;;;5051781;28;20560;-44
2022/06/05 07:30:28;;;;;;;7.90;7.32;;;19.40;99.90;;;;;;5052167;28;20059;-46
2022/06/05 07:32:54;;;;;;;8.75;7.95;;;19.50;99.90;;;;;;5051772;28;20029;-44
2022/06/05 07:35:21;;;;;;;10.32;8.48;;;19.60;99.90;;;;;;5050876;28;20112;-44
2022/06/05 07:37:47;;;;;;;8.88;8.18;;;19.70;99.90;;;;;;5050591;28;20049;-43
2022/06/05 07:40:14;;;;;;;9.32;8.15;;;19.70;99.90;;;;;;5052210;28;20029;-45
2022/06/05 07:42:41;;;;;;;10.20;9.20;;;19.70;99.90;;;;;;5052026;28;20451;-44
2022/06/05 07:45:10;;;;;;;9.88;8.77;;;19.70;99.90;;;;;;5051912;28;20527;-45
2022/06/05 07:47:35;;;;;;;9.05;8.35;;;19.70;99.90;;;;;;5051674;28;20033;-45
2022/06/05 07:50:01;;;;;;;10.15;9.15;;;19.70;99.90;;;;;;5050619;28;20025;-46
2022/06/05 07:55:11;;;;;;;9.07;8.20;;;19.70;99.90;;;;;;5052070;28;20115;-46
2022/06/05 07:57:37;;;;;;;9.60;8.48;;;19.80;99.90;;;;;;5051786;28;20030;-44
2022/06/05 08:00:07;;;;;;;10.52;8.95;;;19.90;99.90;;;;;;5051736;28;20098;-44
2022/06/05 08:02:34;;;;;;;9.85;8.95;;;20.00;99.90;;;;;;5051726;28;20108;-44
2022/06/05 08:05:00;;;;;;;10.30;9.40;;;19.90;99.90;;;;;;5051689;28;20504;-44
2022/06/05 08:07:31;;;;;;;9.55;8.73;;;19.90;99.90;;;;;;5051277;28;20036;-48
2022/06/05 08:09:57;;;;;;;9.57;8.88;;;19.80;99.90;;;;;;5050259;28;20568;-44
2022/06/05 08:12:25;;;;;;;11.82;10.50;;;19.80;99.90;;;;;;5050836;28;20416;-46
2022/06/05 08:14:52;;;;;;;13.55;9.48;;;19.70;99.90;;;;;;5051795;28;20025;-44
2022/06/05 08:17:22;;;;;;;9.43;8.50;;;19.80;99.90;;;;;;5051224;28;20024;-44
2022/06/05 08:19:48;;;;;;;10.02;8.95;;;19.80;99.90;;;;;;5051377;28;20059;-45
2022/06/05 08:22:17;;;;;;;9.43;8.52;;;19.80;99.90;;;;;;5050101;28;20021;-44
2022/06/05 08:24:42;;;;;;;10.00;8.95;;;19.80;99.90;;;;;;5050138;28;20570;-46
2022/06/05 08:27:11;;;;;;;9.85;8.85;;;19.70;99.90;;;;;;5050877;28;20017;-45
2022/06/05 08:29:37;;;;;;;9.25;8.45;;;19.70;99.90;;;;;;5050974;28;20059;-44
2022/06/05 08:32:04;;;;;;;13.30;9.25;;;19.60;99.90;;;;;;5050738;28;20029;-45
2022/06/05 08:34:30;;;;;;;9.20;8.40;;;19.70;99.90;;;;;;5051302;28;20025;-45
2022/06/05 08:43:01;;;;;;;8.57;7.85;;;19.60;99.90;;;;;;5051382;28;20160;-44
2022/06/05 08:45:36;;;;;;;10.38;8.88;;;19.70;99.90;;;;;;5051267;28;20021;-43
2022/06/05 08:48:07;;;;;;;9.00;8.30;;;19.70;99.90;;;;;;5049498;28;20032;-44
2022/06/05 08:50:53;;;;;;;8.07;7.30;;;19.80;99.90;;;;;;5051336;28;20125;-48
2022/06/05 08:53:50;;;;;;;9.65;8.60;;;19.90;99.90;;;;;;5051438;28;20036;-45
2022/06/05 08:56:39;;;;;;;8.52;7.75;;;19.80;99.90;;;;;;5051343;28;20366;-45
2022/06/05 08:59:20;;;;;;;9.63;8.63;;;19.80;99.90;;;;;;5051416;28;20025;-46
2022/06/05 09:02:13;;;;;;;9.93;8.38;;;19.80;99.90;;;;;;5051603;28;20043;-44
2022/06/05 09:04:59;;;;;;;9.52;8.55;;;19.80;99.90;;;;;;5050931;28;20028;-49
2022/06/05 09:07:34;;;;;;;9.70;8.68;;;19.80;99.90;;;;;;5049396;28;20021;-47
2022/06/05 09:10:13;;;;;;;8.98;8.18;;;19.80;99.90;;;;;;5049704;28;20021;-46
2022/06/05 09:12:59;;;;;;;9.43;8.48;;;19.60;99.90;;;;;;5050926;28;20106;-44
2022/06/05 09:15:30;;;;;;;9.20;8.45;;;19.70;99.90;;;;;;5050781;28;20032;-49
2022/06/05 09:18:01;;;;;;;9.60;8.73;;;19.70;99.90;;;;;;5050645;28;20025;-48
2022/06/05 09:20:38;;;;;;;9.35;8.45;;;19.70;99.90;;;;;;5049514;28;20043;-47
2022/06/05 09:23:19;;;;;;;10.10;8.38;;;19.70;99.90;;;;;;5049508;28;20032;-49
2022/06/05 09:26:02;;;;;;;8.90;8.20;;;19.90;99.90;;;;;;5050745;28;20033;-44
2022/06/05 09:28:47;;;;;;;8.90;8.00;;;20.00;99.90;;;;;;5050577;28;20399;-46
2022/06/05 09:31:27;;;;;;;8.60;7.63;;;20.00;99.90;;;;;;5050736;28;20048;-45
2022/06/05 09:33:56;;;;;;;9.00;8.10;;;20.10;99.90;;;;;;5050668;28;20061;-44
2022/06/05 09:36:25;;;;;;;9.60;7.78;;;20.10;99.90;;;;;;5050695;28;20385;-45
2022/06/05 09:39:09;;;;;;;8.38;7.68;;;20.30;99.90;;;;;;5049115;28;20033;-47
2022/06/05 09:41:47;;;;;;;8.15;7.43;;;20.60;99.90;;;;;;5051176;28;20028;-46
2022/06/05 09:44:34;;;;;;;7.85;7.05;;;20.60;99.90;;;;;;5053031;28;20029;-45
2022/06/05 09:47:03;;;;;;;8.05;7.45;;;20.70;99.90;;;;;;5053865;28;20075;-45
2022/06/05 09:49:38;;;;;;;7.78;7.18;;;20.80;99.90;;;;;;5053983;28;20481;-49
2022/06/05 09:52:13;;;;;;;;;;;20.90;99.90;;;;;;5054458;28;20091;-46
2022/06/05 09:54:46;;;;;;;8.98;8.18;;;21.10;99.90;;;;;;5054066;28;19909;-45
2022/06/05 10:00:30;;;;;;;8.93;8.13;;;21.20;99.90;;;;;;5054083;28;20103;-49
2022/06/05 10:03:03;;;;;;;8.50;7.80;;;21.30;99.90;;;;;;5053881;28;20506;-45
2022/06/05 10:05:31;;;;;;;8.63;7.82;;;21.40;99.90;;;;;;5053871;28;20540;-47
2022/06/05 10:08:12;;;;;;;10.40;7.05;;;21.50;99.90;;;;;;5053608;28;20028;-46
2022/06/05 10:10:40;;;;;;;8.30;7.57;;;21.70;99.90;;;;;;5053600;28;20078;-45
2022/06/05 10:13:42;;;;;;;9.27;8.38;;;21.90;99.90;;;;;;5053525;28;20029;-46
2022/06/05 10:16:46;;;;;;;7.53;6.80;;;22.10;99.90;;;;;;5037213;28;20075;-47
2022/06/05 10:19:13;;;;;;;6.80;6.25;;;22.20;99.90;;;;;;5041185;28;20029;-46
2022/06/05 10:21:46;;;;;;;10.80;6.93;;;22.40;99.90;;;;;;5053626;28;20013;-47
2022/06/05 10:24:24;;;;;;;7.32;6.43;;;22.60;99.90;;;;;;5053628;28;20082;-50
2022/06/05 10:26:58;;;;;;;9.48;6.63;;;22.80;99.90;;;;;;5053170;28;20075;-48
2022/06/05 10:29:38;;;;;;;7.40;6.60;;;22.90;99.90;;;;;;5053725;28;20457;-50
2022/06/05 10:32:11;;;;;;;7.28;6.60;;;22.90;99.90;;;;;;5053207;28;20477;-46
2022/06/05 10:34:48;;;;;;;6.88;6.28;;;23.20;99.90;;;;;;5053326;28;20498;-51
2022/06/05 10:37:27;;;;;;;6.18;5.68;;;23.40;99.90;;;;;;5052558;28;20035;-44
2022/06/05 10:40:01;;;;;;;6.38;5.82;;;23.30;99.90;;;;;;5052810;28;20029;-48
2022/06/05 10:42:38;;;;;;;12.60;11.18;;;23.40;99.90;;;;;;5051054;28;20021;-46
2022/06/05 10:45:10;;;;;;;32.90;29.27;;;23.40;99.90;;;;;;5051448;28;20538;-49
2022/06/05 10:47:41;;;;;;;10.27;6.70;;;23.50;99.90;;;;;;5052036;28;20041;-47
2022/06/05 10:50:15;;;;;;;8.57;7.70;;;23.60;99.90;;;;;;5051917;28;20417;-48
2022/06/05 10:52:56;;;;;;;6.60;6.00;;;23.60;99.90;;;;;;5052340;28;20021;-45
2022/06/05 10:55:32;;;;;;;8.05;6.80;;;23.60;99.90;;;;;;5052500;28;20393;-49
2022/06/05 10:58:27;;;;;;;6.60;6.03;;;23.70;99.90;;;;;;5052476;28;20021;-46
2022/06/05 11:01:23;;;;;;;7.72;6.50;;;23.60;99.90;;;;;;5052665;28;20037;-45
2022/06/05 11:04:05;;;;;;;6.72;5.82;;;23.40;99.90;;;;;;5053354;28;20059;-44
2022/06/05 11:06:52;;;;;;;7.32;6.22;;;23.20;99.90;;;;;;5052969;28;20029;-47
2022/06/05 11:09:40;;;;;;;6.45;5.95;;;23.20;99.90;;;;;;5053307;28;20388;-44
2022/06/05 11:15:28;;;;;;;6.43;5.85;;;23.10;99.90;;;;;;5053155;28;20503;-46
2022/06/05 11:18:03;;;;;;;6.20;5.63;;;23.00;99.90;;;;;;5051381;28;20478;-45
2022/06/05 11:20:29;;;;;;;7.03;6.40;;;22.90;99.90;;;;;;5053067;28;20019;-49
2022/06/05 11:23:06;;;;;;;6.45;5.88;;;23.00;99.90;;;;;;5051375;28;20029;-49
2022/06/05 11:25:33;;;;;;;9.52;6.50;;;23.00;99.90;;;;;;5052514;28;20039;-47
2022/06/05 11:28:23;;;;;;;9.13;6.10;;;22.90;99.90;;;;;;5052303;28;20029;-45
2022/06/05 11:31:10;;;;;;;6.63;5.85;;;22.80;99.90;;;;;;5051137;28;20021;-45
2022/06/05 11:34:14;;;;;;;6.93;6.32;;;22.80;99.90;;;;;;5052067;28;20436;-44
2022/06/05 11:36:43;;;;;;;6.35;5.80;;;22.70;99.90;;;;;;5050873;28;20017;-45
2022/06/05 11:39:35;;;;;;;6.35;5.75;;;22.70;99.90;;;;;;5052014;28;20019;-41
2022/06/05 11:42:21;;;;;;;7.10;5.22;;;22.70;99.90;;;;;;5052511;28;20075;-45
2022/06/05 11:44:59;;;;;;;7.97;6.78;;;22.60;99.90;;;;;;5050719;28;20028;-46
2022/06/05 11:47:34;;;;;;;7.88;5.25;;;22.60;99.90;;;;;;5051734;28;20032;-45
2022/06/05 11:50:24;;;;;;;6.43;5.88;;;22.50;99.90;;;;;;5051898;28;20025;-45
2022/06/05 11:53:18;;;;;;;7.43;6.72;;;22.50;99.90;;;;;;5051767;28;20060;-46
2022/06/05 11:55:55;;;;;;;7.93;7.22;;;22.50;99.90;;;;;;5052553;28;20023;-46
2022/06/05 11:58:32;;;;;;;6.85;6.25;;;22.40;99.90;;;;;;5050709;28;20025;-52
2022/06/05 12:01:03;;;;;;;8.10;6.72;;;22.40;99.90;;;;;;5052558;28;20028;-45
2022/06/05 12:03:49;;;;;;;7.18;6.55;;;22.30;99.90;;;;;;5052067;28;20017;-47
2022/06/05 12:06:25;;;;;;;7.85;7.05;;;22.30;99.90;;;;;;5050898;28;20039;-50
2022/06/05 12:09:00;;;;;;;7.85;7.03;;;22.30;99.90;;;;;;5051773;28;20021;-51
2022/06/05 12:11:53;;;;;;;6.20;5.78;;;22.40;99.90;;;;;;5051623;28;20024;-47
2022/06/05 12:14:31;;;;;;;10.23;6.10;;;22.30;99.90;;;;;;5051527;28;20121;-45
2022/06/05 12:17:16;;;;;;;6.95;6.45;;;22.10;99.90;;;;;;5051437;28;20013;-50
2022/06/05 12:20:00;;;;;;;57.53;46.30;;;22.00;99.90;;;;;;5051626;28;20021;-46
2022/06/05 12:23:16;;;;;;;70.55;56.97;;;22.00;99.90;;;;;;5051514;28;20029;-44
2022/06/05 12:25:50;;;;;;;20.77;18.38;;;22.00;99.90;;;;;;5033779;28;20071;-45
2022/06/05 12:28:42;;;;;;;8.13;7.35;;;21.90;99.90;;;;;;5051026;28;20507;-49
2022/06/05 12:31:23;;;;;;;7.30;6.60;;;21.90;99.90;;;;;;5050834;28;20036;-43
2022/06/05 12:33:51;;;;;;;7.68;6.53;;;21.90;99.90;;;;;;5066799;23;20068;-45
2022/06/05 12:36:46;;;;;;;7.53;6.78;;;21.80;99.90;;;;;;5051496;28;20381;-51
2022/06/05 12:39:18;;;;;;;7.65;6.95;;;21.80;99.90;;;;;;5051010;28;20119;-46
2022/06/05 12:42:13;;;;;;;8.05;7.45;;;21.80;99.90;;;;;;5052581;28;20033;-47
2022/06/05 12:45:17;;;;;;;10.40;7.20;;;21.80;99.90;;;;;;5050351;28;20590;-47
2022/06/05 12:48:04;;;;;;;9.25;8.35;;;21.80;99.90;;;;;;5052020;28;20033;-47
2022/06/05 12:50:58;;;;;;;10.15;9.10;;;21.90;99.90;;;;;;5052814;28;20037;-48
2022/06/05 12:53:38;;;;;;;10.27;8.70;;;21.90;99.90;;;;;;5052219;28;20036;-50
2022/06/05 12:56:21;;;;;;;7.60;6.97;;;22.10;99.90;;;;;;5050593;28;20025;-48
2022/06/05 12:59:17;;;;;;;9.82;8.70;;;22.20;99.90;;;;;;5052178;28;20102;-46
2022/06/05 13:02:05;;;;;;;9.27;8.45;;;22.50;99.90;;;;;;5052868;28;20047;-48
2022/06/05 13:04:51;;;;;;;10.35;8.73;;;22.70;99.90;;;;;;5052038;28;20167;-46
2022/06/05 13:07:21;;;;;;;10.60;9.23;;;23.00;99.90;;;;;;5051956;28;20028;-47
2022/06/05 13:10:16;;;;;;;11.75;8.77;;;23.20;99.90;;;;;;5050937;28;20021;-46
2022/06/05 13:12:55;;;;;;;7.68;6.97;;;23.30;99.90;;;;;;5051317;28;20033;-46
2022/06/05 13:15:34;;;;;;;10.20;9.35;;;23.60;99.90;;;;;;5051607;28;20017;-46
2022/06/05 13:18:22;;;;;;;12.25;8.80;;;23.60;99.90;;;;;;5055220;28;20017;-46
2022/06/05 13:21:04;;;;;;;7.68;7.07;;;23.60;99.90;;;;;;5055553;28;20112;-47
2022/06/05 13:23:38;;;;;;;10.45;9.05;;;23.60;99.90;;;;;;5055908;28;20060;-48
2022/06/05 13:26:15;;;;;;;11.10;10.13;;;23.60;99.90;;;;;;5055587;28;20033;-48
2022/06/05 13:29:06;;;;;;;11.07;9.98;;;23.80;99.90;;;;;;5055788;28;20025;-48
2022/06/05 13:32:04;;;;;;;10.32;9.20;;;23.90;99.90;;;;;;5054682;28;20060;-47
2022/06/05 13:34:53;;;;;;;12.57;10.05;;;24.00;99.90;;;;;;5055922;28;20407;-54
2022/06/05 13:37:35;;;;;;;9.45;8.75;;;24.00;99.90;;;;;;5055895;28;20031;-45